sensor_id;sensor_type;location;lat;lon;timestamp;P1;durP1;ratioP1;P2;durP2;ratioP2
21022;SDS011;10669;51.076;3.714;2022-09-17T00:00:48;7.70;;;1.50;;
21022;SDS011;10669;51.076;3.714;2022-09-17T00:03:14;12.60;;;1.50;;
21022;SDS011;10669;51.076;3.714;2022-09-17T00:05:42;13.77;;;2.10;;
21022;SDS011;10669;51.076;3.714;2022-09-17T00:08:12;9.60;;;1.67;;
21022;SDS011;10669;51.076;3.714;2022-09-17T00:10:40;6.23;;;1.63;;
21022;SDS011;10669;51.076;3.714;2022-09-17T00:13:10;6.73;;;1.30;;
21022;SDS011;10669;51.076;3.714;2022-09-17T00:15:40;5.80;;;1.13;;
21022;SDS011;10669;51.076;3.714;2022-09-17T00:18:06;6.93;;;1.53;;
21022;SDS011;10669;51.076;3.714;2022-09-17T00:20:37;10.77;;;1.77;;
21022;SDS011;10669;51.076;3.714;2022-09-17T00:23:04;14.47;;;1.97;;
21022;SDS011;10669;51.076;3.714;2022-09-17T00:25:29;6.43;;;1.20;;
21022;SDS011;10669;51.076;3.714;2022-09-17T00:27:56;8.50;;;2.03;;
21022;SDS011;10669;51.076;3.714;2022-09-17T00:30:22;8.40;;;1.73;;
21022;SDS011;10669;51.076;3.714;2022-09-17T00:32:48;9.97;;;2.37;;
21022;SDS011;10669;51.076;3.714;2022-09-17T00:35:13;5.77;;;1.63;;
21022;SDS011;10669;51.076;3.714;2022-09-17T00:37:39;11.57;;;1.80;;
21022;SDS011;10669;51.076;3.714;2022-09-17T00:40:04;13.80;;;1.67;;
21022;SDS011;10669;51.076;3.714;2022-09-17T00:42:31;11.73;;;1.97;;
21022;SDS011;10669;51.076;3.714;2022-09-17T00:44:56;13.40;;;1.73;;
21022;SDS011;10669;51.076;3.714;2022-09-17T00:50:10;12.90;;;1.93;;
21022;SDS011;10669;51.076;3.714;2022-09-17T00:52:42;18.57;;;2.40;;
21022;SDS011;10669;51.076;3.714;2022-09-17T00:57:40;14.93;;;2.77;;
21022;SDS011;10669;51.076;3.714;2022-09-17T01:00:06;19.67;;;2.53;;
21022;SDS011;10669;51.076;3.714;2022-09-17T01:02:33;15.93;;;2.07;;
21022;SDS011;10669;51.076;3.714;2022-09-17T01:04:59;13.80;;;1.80;;
21022;SDS011;10669;51.076;3.714;2022-09-17T01:10:06;20.40;;;2.33;;
21022;SDS011;10669;51.076;3.714;2022-09-17T01:12:50;17.30;;;2.77;;
21022;SDS011;10669;51.076;3.714;2022-09-17T01:18:21;23.40;;;3.17;;
21022;SDS011;10669;51.076;3.714;2022-09-17T01:21:15;12.60;;;2.50;;
21022;SDS011;10669;51.076;3.714;2022-09-17T01:32:08;23.10;;;3.23;;
21022;SDS011;10669;51.076;3.714;2022-09-17T01:37:28;19.33;;;2.87;;
21022;SDS011;10669;51.076;3.714;2022-09-17T01:40:00;17.00;;;2.67;;
21022;SDS011;10669;51.076;3.714;2022-09-17T01:42:31;16.10;;;2.93;;
21022;SDS011;10669;51.076;3.714;2022-09-17T01:48:06;17.50;;;2.27;;
21022;SDS011;10669;51.076;3.714;2022-09-17T01:50:52;15.13;;;2.13;;
21022;SDS011;10669;51.076;3.714;2022-09-17T01:53:44;16.20;;;2.40;;
21022;SDS011;10669;51.076;3.714;2022-09-17T01:56:22;13.70;;;2.97;;
21022;SDS011;10669;51.076;3.714;2022-09-17T01:58:51;14.73;;;2.73;;
21022;SDS011;10669;51.076;3.714;2022-09-17T02:01:25;15.70;;;2.40;;
21022;SDS011;10669;51.076;3.714;2022-09-17T02:04:02;7.93;;;2.03;;
21022;SDS011;10669;51.076;3.714;2022-09-17T02:06:36;12.17;;;2.40;;
21022;SDS011;10669;51.076;3.714;2022-09-17T02:09:10;14.63;;;2.23;;
21022;SDS011;10669;51.076;3.714;2022-09-17T02:11:42;13.97;;;2.43;;
21022;SDS011;10669;51.076;3.714;2022-09-17T02:14:14;18.30;;;2.53;;
21022;SDS011;10669;51.076;3.714;2022-09-17T02:17:04;12.47;;;2.67;;
21022;SDS011;10669;51.076;3.714;2022-09-17T02:19:35;15.17;;;2.30;;
21022;SDS011;10669;51.076;3.714;2022-09-17T02:22:05;20.57;;;2.47;;
21022;SDS011;10669;51.076;3.714;2022-09-17T02:25:16;16.77;;;2.47;;
21022;SDS011;10669;51.076;3.714;2022-09-17T02:30:20;13.00;;;2.10;;
21022;SDS011;10669;51.076;3.714;2022-09-17T02:32:46;15.73;;;2.33;;
21022;SDS011;10669;51.076;3.714;2022-09-17T02:35:12;17.80;;;2.43;;
21022;SDS011;10669;51.076;3.714;2022-09-17T02:37:40;19.70;;;2.53;;
21022;SDS011;10669;51.076;3.714;2022-09-17T02:40:06;19.33;;;2.17;;
21022;SDS011;10669;51.076;3.714;2022-09-17T02:45:27;19.63;;;2.67;;
21022;SDS011;10669;51.076;3.714;2022-09-17T02:53:35;16.27;;;2.30;;
21022;SDS011;10669;51.076;3.714;2022-09-17T03:04:27;25.17;;;3.37;;
21022;SDS011;10669;51.076;3.714;2022-09-17T03:06:54;23.03;;;3.60;;
21022;SDS011;10669;51.076;3.714;2022-09-17T03:09:20;20.00;;;2.50;;
21022;SDS011;10669;51.076;3.714;2022-09-17T03:11:46;14.43;;;2.80;;
21022;SDS011;10669;51.076;3.714;2022-09-17T03:14:12;17.97;;;2.80;;
21022;SDS011;10669;51.076;3.714;2022-09-17T03:16:37;20.87;;;3.23;;
21022;SDS011;10669;51.076;3.714;2022-09-17T03:19:04;24.97;;;4.47;;
21022;SDS011;10669;51.076;3.714;2022-09-17T03:21:30;19.03;;;2.70;;
21022;SDS011;10669;51.076;3.714;2022-09-17T03:23:55;15.27;;;2.37;;
21022;SDS011;10669;51.076;3.714;2022-09-17T03:26:26;21.17;;;2.43;;
21022;SDS011;10669;51.076;3.714;2022-09-17T03:28:51;19.93;;;2.60;;
21022;SDS011;10669;51.076;3.714;2022-09-17T03:31:20;16.87;;;2.50;;
21022;SDS011;10669;51.076;3.714;2022-09-17T03:33:47;8.70;;;2.07;;
21022;SDS011;10669;51.076;3.714;2022-09-17T03:36:14;16.07;;;2.60;;
21022;SDS011;10669;51.076;3.714;2022-09-17T03:38:39;15.40;;;2.40;;
21022;SDS011;10669;51.076;3.714;2022-09-17T03:43:35;17.87;;;2.47;;
21022;SDS011;10669;51.076;3.714;2022-09-17T03:46:01;9.17;;;1.53;;
21022;SDS011;10669;51.076;3.714;2022-09-17T03:48:27;8.97;;;1.70;;
21022;SDS011;10669;51.076;3.714;2022-09-17T03:50:54;6.97;;;2.03;;
21022;SDS011;10669;51.076;3.714;2022-09-17T03:53:20;18.73;;;1.87;;
21022;SDS011;10669;51.076;3.714;2022-09-17T03:55:47;13.93;;;1.87;;
21022;SDS011;10669;51.076;3.714;2022-09-17T03:58:14;6.83;;;1.60;;
21022;SDS011;10669;51.076;3.714;2022-09-17T04:00:43;10.83;;;2.67;;
21022;SDS011;10669;51.076;3.714;2022-09-17T04:03:10;10.50;;;1.90;;
21022;SDS011;10669;51.076;3.714;2022-09-17T04:05:35;9.53;;;2.53;;
21022;SDS011;10669;51.076;3.714;2022-09-17T04:08:02;10.40;;;1.93;;
21022;SDS011;10669;51.076;3.714;2022-09-17T04:10:29;8.50;;;1.40;;
21022;SDS011;10669;51.076;3.714;2022-09-17T04:12:55;6.63;;;1.63;;
21022;SDS011;10669;51.076;3.714;2022-09-17T04:15:21;14.83;;;1.80;;
21022;SDS011;10669;51.076;3.714;2022-09-17T04:17:47;8.63;;;1.77;;
21022;SDS011;10669;51.076;3.714;2022-09-17T04:20:13;10.83;;;2.20;;
21022;SDS011;10669;51.076;3.714;2022-09-17T04:22:39;9.27;;;1.50;;
21022;SDS011;10669;51.076;3.714;2022-09-17T04:25:05;13.33;;;2.60;;
21022;SDS011;10669;51.076;3.714;2022-09-17T04:27:32;6.57;;;1.60;;
21022;SDS011;10669;51.076;3.714;2022-09-17T04:30:01;9.50;;;1.60;;
21022;SDS011;10669;51.076;3.714;2022-09-17T04:32:30;17.33;;;2.63;;
21022;SDS011;10669;51.076;3.714;2022-09-17T04:34:59;9.67;;;1.70;;
21022;SDS011;10669;51.076;3.714;2022-09-17T04:37:25;13.27;;;1.97;;
21022;SDS011;10669;51.076;3.714;2022-09-17T04:39:53;8.43;;;1.57;;
21022;SDS011;10669;51.076;3.714;2022-09-17T04:42:20;10.87;;;2.27;;
21022;SDS011;10669;51.076;3.714;2022-09-17T04:44:46;7.90;;;1.47;;
21022;SDS011;10669;51.076;3.714;2022-09-17T04:47:14;7.13;;;1.47;;
21022;SDS011;10669;51.076;3.714;2022-09-17T04:49:41;11.87;;;1.77;;
21022;SDS011;10669;51.076;3.714;2022-09-17T04:52:07;10.53;;;2.07;;
21022;SDS011;10669;51.076;3.714;2022-09-17T04:54:32;9.27;;;1.77;;
21022;SDS011;10669;51.076;3.714;2022-09-17T04:56:58;14.13;;;2.07;;
21022;SDS011;10669;51.076;3.714;2022-09-17T04:59:24;13.90;;;2.93;;
21022;SDS011;10669;51.076;3.714;2022-09-17T05:01:50;7.10;;;1.80;;
21022;SDS011;10669;51.076;3.714;2022-09-17T05:04:16;10.77;;;2.17;;
21022;SDS011;10669;51.076;3.714;2022-09-17T05:06:41;11.37;;;2.43;;
21022;SDS011;10669;51.076;3.714;2022-09-17T05:09:07;14.30;;;2.77;;
21022;SDS011;10669;51.076;3.714;2022-09-17T05:11:34;10.07;;;2.30;;
21022;SDS011;10669;51.076;3.714;2022-09-17T05:14:01;10.07;;;2.30;;
21022;SDS011;10669;51.076;3.714;2022-09-17T05:16:28;16.67;;;2.33;;
21022;SDS011;10669;51.076;3.714;2022-09-17T05:18:54;12.00;;;2.00;;
21022;SDS011;10669;51.076;3.714;2022-09-17T05:21:19;12.17;;;1.87;;
21022;SDS011;10669;51.076;3.714;2022-09-17T05:23:45;5.80;;;2.23;;
21022;SDS011;10669;51.076;3.714;2022-09-17T05:26:12;11.30;;;1.90;;
21022;SDS011;10669;51.076;3.714;2022-09-17T05:28:38;13.80;;;2.03;;
21022;SDS011;10669;51.076;3.714;2022-09-17T05:31:04;10.50;;;1.77;;
21022;SDS011;10669;51.076;3.714;2022-09-17T05:33:30;9.67;;;1.50;;
21022;SDS011;10669;51.076;3.714;2022-09-17T05:35:57;17.60;;;1.93;;
21022;SDS011;10669;51.076;3.714;2022-09-17T05:38:24;13.30;;;2.43;;
21022;SDS011;10669;51.076;3.714;2022-09-17T05:40:49;10.10;;;1.80;;
21022;SDS011;10669;51.076;3.714;2022-09-17T05:43:16;9.70;;;1.63;;
21022;SDS011;10669;51.076;3.714;2022-09-17T05:45:43;6.80;;;1.70;;
21022;SDS011;10669;51.076;3.714;2022-09-17T05:48:13;3.17;;;1.10;;
21022;SDS011;10669;51.076;3.714;2022-09-17T05:50:39;9.00;;;1.67;;
21022;SDS011;10669;51.076;3.714;2022-09-17T05:53:06;15.43;;;1.73;;
21022;SDS011;10669;51.076;3.714;2022-09-17T05:55:36;9.20;;;1.93;;
21022;SDS011;10669;51.076;3.714;2022-09-17T05:58:14;12.87;;;2.23;;
21022;SDS011;10669;51.076;3.714;2022-09-17T06:00:41;6.63;;;1.70;;
21022;SDS011;10669;51.076;3.714;2022-09-17T06:03:11;7.60;;;1.67;;
21022;SDS011;10669;51.076;3.714;2022-09-17T06:05:38;6.37;;;1.30;;
21022;SDS011;10669;51.076;3.714;2022-09-17T06:08:04;5.90;;;1.53;;
21022;SDS011;10669;51.076;3.714;2022-09-17T06:10:30;15.27;;;1.50;;
21022;SDS011;10669;51.076;3.714;2022-09-17T06:12:58;5.73;;;1.30;;
21022;SDS011;10669;51.076;3.714;2022-09-17T06:15:24;7.67;;;1.33;;
21022;SDS011;10669;51.076;3.714;2022-09-17T06:17:52;10.57;;;1.60;;
21022;SDS011;10669;51.076;3.714;2022-09-17T06:20:18;9.97;;;1.80;;
21022;SDS011;10669;51.076;3.714;2022-09-17T06:22:45;11.57;;;1.30;;
21022;SDS011;10669;51.076;3.714;2022-09-17T06:25:11;8.90;;;2.87;;
21022;SDS011;10669;51.076;3.714;2022-09-17T06:27:37;7.60;;;1.70;;
21022;SDS011;10669;51.076;3.714;2022-09-17T06:30:03;7.57;;;1.17;;
21022;SDS011;10669;51.076;3.714;2022-09-17T06:32:31;14.40;;;2.03;;
21022;SDS011;10669;51.076;3.714;2022-09-17T06:34:57;9.87;;;2.17;;
21022;SDS011;10669;51.076;3.714;2022-09-17T06:37:26;9.73;;;1.77;;
21022;SDS011;10669;51.076;3.714;2022-09-17T06:39:53;5.23;;;1.57;;
21022;SDS011;10669;51.076;3.714;2022-09-17T06:42:18;10.53;;;1.50;;
21022;SDS011;10669;51.076;3.714;2022-09-17T06:44:44;11.93;;;2.00;;
21022;SDS011;10669;51.076;3.714;2022-09-17T06:47:10;10.13;;;1.90;;
21022;SDS011;10669;51.076;3.714;2022-09-17T06:49:36;12.40;;;2.07;;
21022;SDS011;10669;51.076;3.714;2022-09-17T06:52:02;11.73;;;1.97;;
21022;SDS011;10669;51.076;3.714;2022-09-17T06:54:31;7.40;;;1.43;;
21022;SDS011;10669;51.076;3.714;2022-09-17T06:56:57;8.70;;;2.03;;
21022;SDS011;10669;51.076;3.714;2022-09-17T06:59:23;8.10;;;1.93;;
21022;SDS011;10669;51.076;3.714;2022-09-17T07:01:52;13.10;;;1.77;;
21022;SDS011;10669;51.076;3.714;2022-09-17T07:04:18;13.13;;;1.80;;
21022;SDS011;10669;51.076;3.714;2022-09-17T07:06:44;13.50;;;2.13;;
21022;SDS011;10669;51.076;3.714;2022-09-17T07:09:11;8.83;;;1.63;;
21022;SDS011;10669;51.076;3.714;2022-09-17T07:11:38;10.80;;;1.50;;
21022;SDS011;10669;51.076;3.714;2022-09-17T07:14:04;6.47;;;1.43;;
21022;SDS011;10669;51.076;3.714;2022-09-17T07:16:31;5.63;;;1.50;;
21022;SDS011;10669;51.076;3.714;2022-09-17T07:19:00;7.37;;;1.70;;
21022;SDS011;10669;51.076;3.714;2022-09-17T07:21:26;5.33;;;1.20;;
21022;SDS011;10669;51.076;3.714;2022-09-17T07:23:53;6.90;;;1.23;;
21022;SDS011;10669;51.076;3.714;2022-09-17T07:26:19;6.63;;;0.97;;
21022;SDS011;10669;51.076;3.714;2022-09-17T07:28:46;10.37;;;1.00;;
21022;SDS011;10669;51.076;3.714;2022-09-17T07:31:13;5.83;;;1.13;;
21022;SDS011;10669;51.076;3.714;2022-09-17T07:33:39;6.27;;;1.83;;
21022;SDS011;10669;51.076;3.714;2022-09-17T07:36:06;7.87;;;1.40;;
21022;SDS011;10669;51.076;3.714;2022-09-17T07:38:34;4.70;;;1.30;;
21022;SDS011;10669;51.076;3.714;2022-09-17T07:41:05;5.17;;;1.30;;
21022;SDS011;10669;51.076;3.714;2022-09-17T07:43:39;5.73;;;1.10;;
21022;SDS011;10669;51.076;3.714;2022-09-17T07:46:07;6.27;;;1.70;;
21022;SDS011;10669;51.076;3.714;2022-09-17T07:48:38;5.80;;;1.00;;
21022;SDS011;10669;51.076;3.714;2022-09-17T07:51:04;7.43;;;1.90;;
21022;SDS011;10669;51.076;3.714;2022-09-17T07:53:30;7.80;;;1.40;;
21022;SDS011;10669;51.076;3.714;2022-09-17T07:55:58;6.73;;;1.37;;
21022;SDS011;10669;51.076;3.714;2022-09-17T07:58:31;7.77;;;1.40;;
21022;SDS011;10669;51.076;3.714;2022-09-17T08:01:01;7.93;;;1.30;;
21022;SDS011;10669;51.076;3.714;2022-09-17T08:03:31;12.20;;;1.50;;
21022;SDS011;10669;51.076;3.714;2022-09-17T08:06:07;9.73;;;1.43;;
21022;SDS011;10669;51.076;3.714;2022-09-17T08:08:35;10.53;;;1.30;;
21022;SDS011;10669;51.076;3.714;2022-09-17T08:11:02;10.23;;;1.33;;
21022;SDS011;10669;51.076;3.714;2022-09-17T08:13:30;11.70;;;1.43;;
21022;SDS011;10669;51.076;3.714;2022-09-17T08:15:57;7.93;;;1.33;;
21022;SDS011;10669;51.076;3.714;2022-09-17T08:18:28;11.00;;;1.43;;
21022;SDS011;10669;51.076;3.714;2022-09-17T08:21:01;7.97;;;1.40;;
21022;SDS011;10669;51.076;3.714;2022-09-17T08:23:28;9.80;;;1.50;;
21022;SDS011;10669;51.076;3.714;2022-09-17T08:25:56;6.50;;;1.40;;
21022;SDS011;10669;51.076;3.714;2022-09-17T08:28:24;6.30;;;0.90;;
21022;SDS011;10669;51.076;3.714;2022-09-17T08:30:51;6.37;;;1.43;;
21022;SDS011;10669;51.076;3.714;2022-09-17T08:33:18;11.40;;;1.43;;
21022;SDS011;10669;51.076;3.714;2022-09-17T08:35:51;10.60;;;1.30;;
21022;SDS011;10669;51.076;3.714;2022-09-17T08:38:17;15.27;;;1.87;;
21022;SDS011;10669;51.076;3.714;2022-09-17T08:40:51;8.70;;;1.77;;
21022;SDS011;10669;51.076;3.714;2022-09-17T08:46:13;5.43;;;1.23;;
21022;SDS011;10669;51.076;3.714;2022-09-17T08:54:48;5.70;;;1.27;;
21022;SDS011;10669;51.076;3.714;2022-09-17T09:00:22;5.67;;;1.13;;
21022;SDS011;10669;51.076;3.714;2022-09-17T09:05:46;2.73;;;0.60;;
21022;SDS011;10669;51.076;3.714;2022-09-17T09:10:53;4.50;;;1.03;;
21022;SDS011;10669;51.076;3.714;2022-09-17T09:13:24;2.70;;;1.00;;
21022;SDS011;10669;51.076;3.714;2022-09-17T09:15:58;3.83;;;0.80;;
21022;SDS011;10669;51.076;3.714;2022-09-17T09:18:34;6.53;;;0.80;;
21022;SDS011;10669;51.076;3.714;2022-09-17T09:23:55;2.67;;;0.80;;
21022;SDS011;10669;51.076;3.714;2022-09-17T09:31:58;3.93;;;0.97;;
21022;SDS011;10669;51.076;3.714;2022-09-17T09:34:27;3.03;;;1.00;;
21022;SDS011;10669;51.076;3.714;2022-09-17T09:36:57;6.70;;;1.23;;
21022;SDS011;10669;51.076;3.714;2022-09-17T09:39:42;6.80;;;0.70;;
21022;SDS011;10669;51.076;3.714;2022-09-17T09:44:50;5.10;;;1.37;;
21022;SDS011;10669;51.076;3.714;2022-09-17T09:56:08;14.40;;;1.50;;
21022;SDS011;10669;51.076;3.714;2022-09-17T10:01:17;10.77;;;1.30;;
21022;SDS011;10669;51.076;3.714;2022-09-17T10:03:44;10.23;;;1.27;;
21022;SDS011;10669;51.076;3.714;2022-09-17T10:06:12;7.50;;;1.20;;
21022;SDS011;10669;51.076;3.714;2022-09-17T10:08:40;5.27;;;1.47;;
21022;SDS011;10669;51.076;3.714;2022-09-17T10:11:26;4.93;;;1.60;;
21022;SDS011;10669;51.076;3.714;2022-09-17T10:14:12;7.13;;;1.50;;
21022;SDS011;10669;51.076;3.714;2022-09-17T10:16:40;7.50;;;1.70;;
21022;SDS011;10669;51.076;3.714;2022-09-17T10:21:32;9.30;;;2.10;;
21022;SDS011;10669;51.076;3.714;2022-09-17T10:24:04;7.60;;;1.43;;
21022;SDS011;10669;51.076;3.714;2022-09-17T10:26:50;5.67;;;1.33;;
21022;SDS011;10669;51.076;3.714;2022-09-17T10:29:17;2.10;;;1.30;;
21022;SDS011;10669;51.076;3.714;2022-09-17T10:31:46;6.37;;;1.50;;
21022;SDS011;10669;51.076;3.714;2022-09-17T10:34:20;7.77;;;2.53;;
21022;SDS011;10669;51.076;3.714;2022-09-17T10:36:55;7.87;;;1.40;;
21022;SDS011;10669;51.076;3.714;2022-09-17T10:44:23;2.03;;;0.90;;
21022;SDS011;10669;51.076;3.714;2022-09-17T10:46:53;6.53;;;1.17;;
21022;SDS011;10669;51.076;3.714;2022-09-17T10:52:17;7.23;;;1.20;;
21022;SDS011;10669;51.076;3.714;2022-09-17T11:06:09;5.87;;;1.20;;
21022;SDS011;10669;51.076;3.714;2022-09-17T11:14:55;7.20;;;1.57;;
21022;SDS011;10669;51.076;3.714;2022-09-17T11:40:31;12.13;;;2.23;;
21022;SDS011;10669;51.076;3.714;2022-09-17T11:46:12;12.37;;;2.27;;
21022;SDS011;10669;51.076;3.714;2022-09-17T11:51:30;10.40;;;2.00;;
21022;SDS011;10669;51.076;3.714;2022-09-17T11:54:05;14.73;;;1.93;;
21022;SDS011;10669;51.076;3.714;2022-09-17T11:56:52;12.67;;;2.20;;
21022;SDS011;10669;51.076;3.714;2022-09-17T11:59:28;6.57;;;1.63;;
21022;SDS011;10669;51.076;3.714;2022-09-17T12:02:16;8.83;;;1.67;;
21022;SDS011;10669;51.076;3.714;2022-09-17T12:05:03;5.80;;;1.47;;
21022;SDS011;10669;51.076;3.714;2022-09-17T12:08:28;8.40;;;1.77;;
21022;SDS011;10669;51.076;3.714;2022-09-17T12:10:51;12.40;;;1.60;;
21022;SDS011;10669;51.076;3.714;2022-09-17T12:18:48;8.07;;;1.73;;
21022;SDS011;10669;51.076;3.714;2022-09-17T12:21:40;8.90;;;1.97;;
21022;SDS011;10669;51.076;3.714;2022-09-17T12:32:32;8.40;;;1.67;;
21022;SDS011;10669;51.076;3.714;2022-09-17T12:43:39;12.23;;;1.97;;
21022;SDS011;10669;51.076;3.714;2022-09-17T13:00:14;5.47;;;1.30;;
21022;SDS011;10669;51.076;3.714;2022-09-17T13:02:42;9.87;;;1.57;;
21022;SDS011;10669;51.076;3.714;2022-09-17T13:11:03;5.73;;;1.33;;
21022;SDS011;10669;51.076;3.714;2022-09-17T13:14:24;6.70;;;1.23;;
21022;SDS011;10669;51.076;3.714;2022-09-17T13:19:40;10.90;;;1.50;;
21022;SDS011;10669;51.076;3.714;2022-09-17T13:22:08;9.80;;;1.60;;
21022;SDS011;10669;51.076;3.714;2022-09-17T13:24:41;9.87;;;1.77;;
21022;SDS011;10669;51.076;3.714;2022-09-17T13:27:30;6.47;;;1.30;;
21022;SDS011;10669;51.076;3.714;2022-09-17T13:29:56;12.57;;;1.60;;
21022;SDS011;10669;51.076;3.714;2022-09-17T13:35:06;8.13;;;1.53;;
21022;SDS011;10669;51.076;3.714;2022-09-17T13:40:27;5.47;;;1.10;;
21022;SDS011;10669;51.076;3.714;2022-09-17T13:43:10;11.63;;;1.50;;
21022;SDS011;10669;51.076;3.714;2022-09-17T13:48:35;6.77;;;1.40;;
21022;SDS011;10669;51.076;3.714;2022-09-17T13:53:53;2.93;;;0.87;;
21022;SDS011;10669;51.076;3.714;2022-09-17T13:56:31;5.43;;;0.80;;
21022;SDS011;10669;51.076;3.714;2022-09-17T13:59:08;4.20;;;1.27;;
21022;SDS011;10669;51.076;3.714;2022-09-17T14:10:32;3.30;;;0.80;;
21022;SDS011;10669;51.076;3.714;2022-09-17T14:12:50;3.37;;;0.60;;
21022;SDS011;10669;51.076;3.714;2022-09-17T14:18:31;4.50;;;0.83;;
21022;SDS011;10669;51.076;3.714;2022-09-17T14:21:14;2.77;;;0.90;;
21022;SDS011;10669;51.076;3.714;2022-09-17T14:23:44;3.27;;;0.90;;
21022;SDS011;10669;51.076;3.714;2022-09-17T14:26:18;2.23;;;1.03;;
21022;SDS011;10669;51.076;3.714;2022-09-17T14:31:59;4.30;;;0.93;;
21022;SDS011;10669;51.076;3.714;2022-09-17T14:34:25;9.27;;;1.27;;
21022;SDS011;10669;51.076;3.714;2022-09-17T14:36:51;5.87;;;1.27;;
21022;SDS011;10669;51.076;3.714;2022-09-17T14:39:20;6.83;;;1.60;;
21022;SDS011;10669;51.076;3.714;2022-09-17T14:41:48;6.53;;;1.30;;
21022;SDS011;10669;51.076;3.714;2022-09-17T14:44:20;5.63;;;1.07;;
21022;SDS011;10669;51.076;3.714;2022-09-17T14:49:47;2.67;;;0.70;;
21022;SDS011;10669;51.076;3.714;2022-09-17T14:52:30;6.87;;;1.13;;
21022;SDS011;10669;51.076;3.714;2022-09-17T14:57:42;9.57;;;1.50;;
21022;SDS011;10669;51.076;3.714;2022-09-17T15:00:17;7.73;;;1.30;;
21022;SDS011;10669;51.076;3.714;2022-09-17T15:02:51;5.43;;;1.40;;
21022;SDS011;10669;51.076;3.714;2022-09-17T15:08:02;4.10;;;0.80;;
21022;SDS011;10669;51.076;3.714;2022-09-17T15:10:51;7.50;;;1.10;;
21022;SDS011;10669;51.076;3.714;2022-09-17T15:13:29;4.47;;;0.83;;
21022;SDS011;10669;51.076;3.714;2022-09-17T15:16:02;4.73;;;0.83;;
21022;SDS011;10669;51.076;3.714;2022-09-17T15:19:13;7.37;;;1.30;;
21022;SDS011;10669;51.076;3.714;2022-09-17T15:21:33;6.33;;;1.30;;
21022;SDS011;10669;51.076;3.714;2022-09-17T15:24:22;6.03;;;1.00;;
21022;SDS011;10669;51.076;3.714;2022-09-17T15:26:58;6.67;;;2.03;;
21022;SDS011;10669;51.076;3.714;2022-09-17T15:29:28;5.50;;;1.70;;
21022;SDS011;10669;51.076;3.714;2022-09-17T15:31:58;7.83;;;2.60;;
21022;SDS011;10669;51.076;3.714;2022-09-17T15:34:26;4.87;;;1.37;;
21022;SDS011;10669;51.076;3.714;2022-09-17T15:37:05;5.27;;;1.43;;
21022;SDS011;10669;51.076;3.714;2022-09-17T15:39:41;13.80;;;1.50;;
21022;SDS011;10669;51.076;3.714;2022-09-17T15:42:25;8.93;;;1.87;;
21022;SDS011;10669;51.076;3.714;2022-09-17T15:47:57;4.80;;;1.53;;
21022;SDS011;10669;51.076;3.714;2022-09-17T15:50:33;10.63;;;1.50;;
21022;SDS011;10669;51.076;3.714;2022-09-17T15:53:19;6.93;;;1.37;;
21022;SDS011;10669;51.076;3.714;2022-09-17T15:56:12;7.00;;;1.70;;
21022;SDS011;10669;51.076;3.714;2022-09-17T16:08:46;11.50;;;2.10;;
21022;SDS011;10669;51.076;3.714;2022-09-17T16:11:23;4.57;;;1.80;;
21022;SDS011;10669;51.076;3.714;2022-09-17T16:13:51;10.37;;;3.10;;
21022;SDS011;10669;51.076;3.714;2022-09-17T16:16:36;13.40;;;3.23;;
21022;SDS011;10669;51.076;3.714;2022-09-17T16:19:03;14.57;;;5.83;;
21022;SDS011;10669;51.076;3.714;2022-09-17T16:21:30;12.93;;;4.30;;
21022;SDS011;10669;51.076;3.714;2022-09-17T16:23:56;10.90;;;3.27;;
21022;SDS011;10669;51.076;3.714;2022-09-17T16:26:23;11.70;;;3.63;;
21022;SDS011;10669;51.076;3.714;2022-09-17T16:28:53;16.20;;;4.70;;
21022;SDS011;10669;51.076;3.714;2022-09-17T16:31:25;13.37;;;4.20;;
21022;SDS011;10669;51.076;3.714;2022-09-17T16:33:53;21.30;;;9.53;;
21022;SDS011;10669;51.076;3.714;2022-09-17T16:36:20;10.57;;;5.03;;
21022;SDS011;10669;51.076;3.714;2022-09-17T16:38:48;12.37;;;4.60;;
21022;SDS011;10669;51.076;3.714;2022-09-17T16:41:15;17.70;;;5.90;;
21022;SDS011;10669;51.076;3.714;2022-09-17T16:43:41;17.80;;;4.77;;
21022;SDS011;10669;51.076;3.714;2022-09-17T16:46:09;18.03;;;4.60;;
21022;SDS011;10669;51.076;3.714;2022-09-17T16:48:36;18.50;;;6.90;;
21022;SDS011;10669;51.076;3.714;2022-09-17T16:51:07;18.57;;;8.60;;
21022;SDS011;10669;51.076;3.714;2022-09-17T16:53:36;10.30;;;3.43;;
21022;SDS011;10669;51.076;3.714;2022-09-17T16:56:09;15.57;;;3.30;;
21022;SDS011;10669;51.076;3.714;2022-09-17T16:58:38;9.50;;;4.30;;
21022;SDS011;10669;51.076;3.714;2022-09-17T17:01:07;11.50;;;2.53;;
21022;SDS011;10669;51.076;3.714;2022-09-17T17:03:35;8.80;;;2.30;;
21022;SDS011;10669;51.076;3.714;2022-09-17T17:06:01;6.67;;;2.13;;
21022;SDS011;10669;51.076;3.714;2022-09-17T17:08:27;10.10;;;2.30;;
21022;SDS011;10669;51.076;3.714;2022-09-17T17:10:55;7.17;;;2.37;;
21022;SDS011;10669;51.076;3.714;2022-09-17T17:13:22;9.67;;;2.87;;
21022;SDS011;10669;51.076;3.714;2022-09-17T17:15:49;7.17;;;2.37;;
21022;SDS011;10669;51.076;3.714;2022-09-17T17:18:18;8.83;;;2.00;;
21022;SDS011;10669;51.076;3.714;2022-09-17T17:20:45;12.47;;;2.13;;
21022;SDS011;10669;51.076;3.714;2022-09-17T17:23:12;14.30;;;2.70;;
21022;SDS011;10669;51.076;3.714;2022-09-17T17:25:38;9.00;;;1.83;;
21022;SDS011;10669;51.076;3.714;2022-09-17T17:28:04;7.07;;;2.03;;
21022;SDS011;10669;51.076;3.714;2022-09-17T17:30:30;5.93;;;2.10;;
21022;SDS011;10669;51.076;3.714;2022-09-17T17:32:56;8.97;;;1.97;;
21022;SDS011;10669;51.076;3.714;2022-09-17T17:35:24;7.93;;;1.97;;
21022;SDS011;10669;51.076;3.714;2022-09-17T17:37:51;6.53;;;2.13;;
21022;SDS011;10669;51.076;3.714;2022-09-17T17:40:18;7.20;;;2.43;;
21022;SDS011;10669;51.076;3.714;2022-09-17T17:42:44;6.87;;;2.70;;
21022;SDS011;10669;51.076;3.714;2022-09-17T17:45:18;11.70;;;2.87;;
21022;SDS011;10669;51.076;3.714;2022-09-17T17:47:45;11.73;;;3.00;;
21022;SDS011;10669;51.076;3.714;2022-09-17T17:50:11;8.67;;;2.87;;
21022;SDS011;10669;51.076;3.714;2022-09-17T17:52:38;5.43;;;2.53;;
21022;SDS011;10669;51.076;3.714;2022-09-17T17:55:08;14.00;;;3.57;;
21022;SDS011;10669;51.076;3.714;2022-09-17T17:57:34;10.47;;;3.03;;
21022;SDS011;10669;51.076;3.714;2022-09-17T18:00:02;8.67;;;2.73;;
21022;SDS011;10669;51.076;3.714;2022-09-17T18:02:28;7.83;;;2.00;;
21022;SDS011;10669;51.076;3.714;2022-09-17T18:04:53;8.70;;;1.90;;
21022;SDS011;10669;51.076;3.714;2022-09-17T18:07:21;6.73;;;2.03;;
21022;SDS011;10669;51.076;3.714;2022-09-17T18:09:49;10.07;;;2.33;;
21022;SDS011;10669;51.076;3.714;2022-09-17T18:12:14;7.33;;;2.37;;
21022;SDS011;10669;51.076;3.714;2022-09-17T18:14:40;9.47;;;2.73;;
21022;SDS011;10669;51.076;3.714;2022-09-17T18:17:08;14.23;;;2.47;;
21022;SDS011;10669;51.076;3.714;2022-09-17T18:19:34;9.30;;;2.23;;
21022;SDS011;10669;51.076;3.714;2022-09-17T18:22:00;8.17;;;2.00;;
21022;SDS011;10669;51.076;3.714;2022-09-17T18:24:27;9.27;;;2.70;;
21022;SDS011;10669;51.076;3.714;2022-09-17T18:26:52;13.43;;;3.30;;
21022;SDS011;10669;51.076;3.714;2022-09-17T18:29:18;7.83;;;2.37;;
21022;SDS011;10669;51.076;3.714;2022-09-17T18:31:43;11.23;;;2.60;;
21022;SDS011;10669;51.076;3.714;2022-09-17T18:34:10;12.33;;;3.20;;
21022;SDS011;10669;51.076;3.714;2022-09-17T18:36:38;8.63;;;3.10;;
21022;SDS011;10669;51.076;3.714;2022-09-17T18:39:05;11.00;;;3.70;;
21022;SDS011;10669;51.076;3.714;2022-09-17T18:41:34;10.23;;;3.37;;
21022;SDS011;10669;51.076;3.714;2022-09-17T18:44:08;7.00;;;3.00;;
21022;SDS011;10669;51.076;3.714;2022-09-17T18:46:36;12.07;;;2.40;;
21022;SDS011;10669;51.076;3.714;2022-09-17T18:49:03;11.50;;;2.80;;
21022;SDS011;10669;51.076;3.714;2022-09-17T18:51:30;8.73;;;2.00;;
21022;SDS011;10669;51.076;3.714;2022-09-17T18:53:56;8.67;;;2.60;;